sensor_id;sensor_type;location;lat;lon;timestamp;temperature;humidity
9167;DHT22;4618;48.818;9.088;2023-09-30T00:01:54;16.90;1.00
9167;DHT22;4618;48.818;9.088;2023-09-30T00:04:20;16.80;1.00
9167;DHT22;4618;48.818;9.088;2023-09-30T00:06:45;16.70;1.00
9167;DHT22;4618;48.818;9.088;2023-09-30T00:09:11;16.60;98.40
9167;DHT22;4618;48.818;9.088;2023-09-30T00:11:37;16.50;99.90
9167;DHT22;4618;48.818;9.088;2023-09-30T00:14:02;16.50;99.90
9167;DHT22;4618;48.818;9.088;2023-09-30T00:16:29;16.40;99.90
9167;DHT22;4618;48.818;9.088;2023-09-30T00:18:56;16.40;1.00
9167;DHT22;4618;48.818;9.088;2023-09-30T00:21:23;16.40;1.00
9167;DHT22;4618;48.818;9.088;2023-09-30T00:23:49;16.40;1.00
9167;DHT22;4618;48.818;9.088;2023-09-30T00:26:14;16.50;1.00
9167;DHT22;4618;48.818;9.088;2023-09-30T00:28:40;16.50;1.00
9167;DHT22;4618;48.818;9.088;2023-09-30T00:31:09;16.60;1.00
9167;DHT22;4618;48.818;9.088;2023-09-30T00:33:35;16.50;1.00
9167;DHT22;4618;48.818;9.088;2023-09-30T00:36:06;16.50;25.40
9167;DHT22;4618;48.818;9.088;2023-09-30T00:38:32;16.50;99.90
9167;DHT22;4618;48.818;9.088;2023-09-30T00:40:58;16.50;99.90
9167;DHT22;4618;48.818;9.088;2023-09-30T00:43:23;16.40;1.00
9167;DHT22;4618;48.818;9.088;2023-09-30T00:45:54;16.50;1.00
9167;DHT22;4618;48.818;9.088;2023-09-30T00:48:20;16.60;1.00
9167;DHT22;4618;48.818;9.088;2023-09-30T00:50:45;16.60;1.00
9167;DHT22;4618;48.818;9.088;2023-09-30T00:53:11;16.60;1.00
9167;DHT22;4618;48.818;9.088;2023-09-30T00:55:37;16.60;1.00
9167;DHT22;4618;48.818;9.088;2023-09-30T00:58:02;16.50;1.00
9167;DHT22;4618;48.818;9.088;2023-09-30T01:00:28;16.50;1.00
9167;DHT22;4618;48.818;9.088;2023-09-30T01:02:54;16.40;1.00
9167;DHT22;4618;48.818;9.088;2023-09-30T01:05:19;16.40;1.00
9167;DHT22;4618;48.818;9.088;2023-09-30T01:07:45;16.30;12.80
9167;DHT22;4618;48.818;9.088;2023-09-30T01:10:11;16.20;99.90
9167;DHT22;4618;48.818;9.088;2023-09-30T01:12:36;16.30;99.90
9167;DHT22;4618;48.818;9.088;2023-09-30T01:15:02;16.20;99.90
9167;DHT22;4618;48.818;9.088;2023-09-30T01:17:30;16.20;99.90
9167;DHT22;4618;48.818;9.088;2023-09-30T01:19:57;16.20;99.90
9167;DHT22;4618;48.818;9.088;2023-09-30T01:22:26;16.20;99.90
9167;DHT22;4618;48.818;9.088;2023-09-30T01:24:55;16.30;92.90
9167;DHT22;4618;48.818;9.088;2023-09-30T01:27:21;16.20;1.00
9167;DHT22;4618;48.818;9.088;2023-09-30T01:29:46;16.00;99.90
9167;DHT22;4618;48.818;9.088;2023-09-30T01:32:12;16.10;1.00
9167;DHT22;4618;48.818;9.088;2023-09-30T01:34:39;16.20;99.90
9167;DHT22;4618;48.818;9.088;2023-09-30T01:37:05;16.20;99.90
9167;DHT22;4618;48.818;9.088;2023-09-30T01:39:31;16.20;99.90
9167;DHT22;4618;48.818;9.088;2023-09-30T01:41:57;16.20;99.90
9167;DHT22;4618;48.818;9.088;2023-09-30T01:44:23;16.20;99.90
9167;DHT22;4618;48.818;9.088;2023-09-30T01:46:49;16.20;3.10
9167;DHT22;4618;48.818;9.088;2023-09-30T01:49:14;16.30;1.00
9167;DHT22;4618;48.818;9.088;2023-09-30T08:25:34;20.80;99.90
9167;DHT22;4618;48.818;9.088;2023-09-30T08:28:00;21.20;99.90
9167;DHT22;4618;48.818;9.088;2023-09-30T08:30:25;22.10;1.00
9167;DHT22;4618;48.818;9.088;2023-09-30T08:32:51;22.80;1.00
9167;DHT22;4618;48.818;9.088;2023-09-30T08:35:17;23.30;1.00
9167;DHT22;4618;48.818;9.088;2023-09-30T08:37:42;23.20;1.00
9167;DHT22;4618;48.818;9.088;2023-09-30T08:45:03;24.20;99.90
9167;DHT22;4618;48.818;9.088;2023-09-30T08:47:29;23.10;1.00
9167;DHT22;4618;48.818;9.088;2023-09-30T08:49:57;23.40;99.90
9167;DHT22;4618;48.818;9.088;2023-09-30T08:52:32;23.40;99.90
9167;DHT22;4618;48.818;9.088;2023-09-30T08:54:58;22.40;99.90
9167;DHT22;4618;48.818;9.088;2023-09-30T08:57:24;22.40;99.90
9167;DHT22;4618;48.818;9.088;2023-09-30T08:59:50;22.80;99.90
9167;DHT22;4618;48.818;9.088;2023-09-30T09:02:18;23.10;99.90
9167;DHT22;4618;48.818;9.088;2023-09-30T09:04:45;23.20;99.90
9167;DHT22;4618;48.818;9.088;2023-09-30T09:07:12;22.80;99.90
9167;DHT22;4618;48.818;9.088;2023-09-30T09:09:37;23.30;99.90
9167;DHT22;4618;48.818;9.088;2023-09-30T09:14:40;25.60;99.90
9167;DHT22;4618;48.818;9.088;2023-09-30T09:24:37;27.20;41.50
9167;DHT22;4618;48.818;9.088;2023-09-30T09:37:21;24.00;99.90
9167;DHT22;4618;48.818;9.088;2023-09-30T09:39:55;23.80;1.00
9167;DHT22;4618;48.818;9.088;2023-09-30T09:44:54;23.40;99.90
9167;DHT22;4618;48.818;9.088;2023-09-30T09:47:21;22.80;99.90
9167;DHT22;4618;48.818;9.088;2023-09-30T09:49:47;23.40;99.90
9167;DHT22;4618;48.818;9.088;2023-09-30T09:52:13;23.40;99.90
9167;DHT22;4618;48.818;9.088;2023-09-30T09:54:43;23.20;99.90
9167;DHT22;4618;48.818;9.088;2023-09-30T09:57:10;23.80;99.90
9167;DHT22;4618;48.818;9.088;2023-09-30T09:59:36;24.70;99.90
9167;DHT22;4618;48.818;9.088;2023-09-30T10:02:12;25.70;99.90
9167;DHT22;4618;48.818;9.088;2023-09-30T10:58:40;29.00;99.90
9167;DHT22;4618;48.818;9.088;2023-09-30T11:10:53;24.80;22.70
9167;DHT22;4618;48.818;9.088;2023-09-30T11:13:20;25.30;1.00
9167;DHT22;4618;48.818;9.088;2023-09-30T11:15:46;25.70;1.00
9167;DHT22;4618;48.818;9.088;2023-09-30T11:18:17;26.90;1.00
9167;DHT22;4618;48.818;9.088;2023-09-30T11:20:44;26.30;1.00
9167;DHT22;4618;48.818;9.088;2023-09-30T11:23:13;25.40;1.00
9167;DHT22;4618;48.818;9.088;2023-09-30T11:25:40;25.10;1.00
9167;DHT22;4618;48.818;9.088;2023-09-30T11:31:00;25.10;99.90
9167;DHT22;4618;48.818;9.088;2023-09-30T11:33:27;26.00;99.90
9167;DHT22;4618;48.818;9.088;2023-09-30T11:38:30;29.40;99.90
9167;DHT22;4618;48.818;9.088;2023-09-30T11:41:05;29.90;99.90
9167;DHT22;4618;48.818;9.088;2023-09-30T11:43:33;29.60;99.90
9167;DHT22;4618;48.818;9.088;2023-09-30T11:46:20;27.50;99.90
9167;DHT22;4618;48.818;9.088;2023-09-30T11:49:03;27.60;99.90
9167;DHT22;4618;48.818;9.088;2023-09-30T11:51:34;28.60;1.00
9167;DHT22;4618;48.818;9.088;2023-09-30T11:54:08;29.10;1.00
9167;DHT22;4618;48.818;9.088;2023-09-30T11:56:36;28.80;1.00
9167;DHT22;4618;48.818;9.088;2023-09-30T11:59:02;29.30;1.00
9167;DHT22;4618;48.818;9.088;2023-09-30T12:01:29;29.80;1.00
9167;DHT22;4618;48.818;9.088;2023-09-30T12:03:58;30.10;1.00
9167;DHT22;4618;48.818;9.088;2023-09-30T12:06:23;30.10;1.00
9167;DHT22;4618;48.818;9.088;2023-09-30T12:08:49;30.00;1.00
9167;DHT22;4618;48.818;9.088;2023-09-30T12:11:20;28.70;1.00
9167;DHT22;4618;48.818;9.088;2023-09-30T12:16:14;28.80;99.90
9167;DHT22;4618;48.818;9.088;2023-09-30T12:18:40;29.10;99.90
9167;DHT22;4618;48.818;9.088;2023-09-30T12:21:10;29.00;99.90
9167;DHT22;4618;48.818;9.088;2023-09-30T12:23:36;29.90;99.90
9167;DHT22;4618;48.818;9.088;2023-09-30T12:26:02;30.20;99.90
9167;DHT22;4618;48.818;9.088;2023-09-30T12:28:31;29.90;99.90
9167;DHT22;4618;48.818;9.088;2023-09-30T12:30:58;29.70;99.90
9167;DHT22;4618;48.818;9.088;2023-09-30T12:33:23;29.80;99.90
9167;DHT22;4618;48.818;9.088;2023-09-30T12:35:49;30.10;99.90
9167;DHT22;4618;48.818;9.088;2023-09-30T12:38:15;30.30;99.90
9167;DHT22;4618;48.818;9.088;2023-09-30T12:40:41;30.20;1.00
9167;DHT22;4618;48.818;9.088;2023-09-30T12:43:09;30.10;99.90
9167;DHT22;4618;48.818;9.088;2023-09-30T12:45:35;30.10;99.90
9167;DHT22;4618;48.818;9.088;2023-09-30T12:48:04;29.60;1.00
9167;DHT22;4618;48.818;9.088;2023-09-30T12:50:29;28.80;1.00
9167;DHT22;4618;48.818;9.088;2023-09-30T12:52:55;29.40;1.00
9167;DHT22;4618;48.818;9.088;2023-09-30T12:55:21;30.00;1.00
9167;DHT22;4618;48.818;9.088;2023-09-30T12:57:46;30.10;99.90
9167;DHT22;4618;48.818;9.088;2023-09-30T13:00:12;31.00;99.90
9167;DHT22;4618;48.818;9.088;2023-09-30T13:02:41;31.10;99.90
9167;DHT22;4618;48.818;9.088;2023-09-30T13:12:29;27.00;99.90
9167;DHT22;4618;48.818;9.088;2023-09-30T13:14:54;26.70;1.00
9167;DHT22;4618;48.818;9.088;2023-09-30T13:17:22;26.90;1.00
9167;DHT22;4618;48.818;9.088;2023-09-30T13:19:47;27.30;1.00
9167;DHT22;4618;48.818;9.088;2023-09-30T13:22:13;28.00;1.00
9167;DHT22;4618;48.818;9.088;2023-09-30T13:24:39;28.80;1.00
9167;DHT22;4618;48.818;9.088;2023-09-30T13:29:31;30.40;99.90
9167;DHT22;4618;48.818;9.088;2023-09-30T13:31:57;30.90;99.90
9167;DHT22;4618;48.818;9.088;2023-09-30T13:34:23;30.80;99.90
9167;DHT22;4618;48.818;9.088;2023-09-30T13:36:48;31.10;99.90
9167;DHT22;4618;48.818;9.088;2023-09-30T13:39:14;31.70;1.00
9167;DHT22;4618;48.818;9.088;2023-09-30T13:44:08;31.50;1.00
9167;DHT22;4618;48.818;9.088;2023-09-30T13:46:34;31.40;99.90
9167;DHT22;4618;48.818;9.088;2023-09-30T13:49:00;31.20;1.00
9167;DHT22;4618;48.818;9.088;2023-09-30T13:51:25;30.90;1.00
9167;DHT22;4618;48.818;9.088;2023-09-30T13:53:51;29.80;99.90
9167;DHT22;4618;48.818;9.088;2023-09-30T13:56:18;28.90;99.90
9167;DHT22;4618;48.818;9.088;2023-09-30T13:58:44;28.50;1.00
9167;DHT22;4618;48.818;9.088;2023-09-30T14:01:12;28.50;1.00
9167;DHT22;4618;48.818;9.088;2023-09-30T14:03:38;28.40;99.90
9167;DHT22;4618;48.818;9.088;2023-09-30T14:47:36;26.10;99.90
9167;DHT22;4618;48.818;9.088;2023-09-30T15:09:32;25.40;99.90
9167;DHT22;4618;48.818;9.088;2023-09-30T15:11:57;25.30;1.00
9167;DHT22;4618;48.818;9.088;2023-09-30T15:14:23;24.90;1.00
9167;DHT22;4618;48.818;9.088;2023-09-30T15:31:27;24.80;1.00
9167;DHT22;4618;48.818;9.088;2023-09-30T15:33:53;25.10;1.00
9167;DHT22;4618;48.818;9.088;2023-09-30T15:36:19;25.10;1.00
9167;DHT22;4618;48.818;9.088;2023-09-30T15:38:45;25.10;1.00
9167;DHT22;4618;48.818;9.088;2023-09-30T15:41:12;24.80;1.00
9167;DHT22;4618;48.818;9.088;2023-09-30T15:43:38;24.60;99.90
9167;DHT22;4618;48.818;9.088;2023-09-30T15:46:04;24.40;1.00
9167;DHT22;4618;48.818;9.088;2023-09-30T15:48:29;24.10;1.00
9167;DHT22;4618;48.818;9.088;2023-09-30T15:50:55;23.90;1.00
9167;DHT22;4618;48.818;9.088;2023-09-30T15:53:21;24.00;1.00
9167;DHT22;4618;48.818;9.088;2023-09-30T15:55:46;24.00;1.00
9167;DHT22;4618;48.818;9.088;2023-09-30T15:58:12;24.10;1.00
9167;DHT22;4618;48.818;9.088;2023-09-30T16:00:38;24.30;99.90
9167;DHT22;4618;48.818;9.088;2023-09-30T16:03:05;24.20;99.90
9167;DHT22;4618;48.818;9.088;2023-09-30T16:05:36;24.20;99.90
9167;DHT22;4618;48.818;9.088;2023-09-30T16:08:03;23.90;1.00
9167;DHT22;4618;48.818;9.088;2023-09-30T16:10:29;23.70;1.00
9167;DHT22;4618;48.818;9.088;2023-09-30T16:12:55;23.50;1.00
9167;DHT22;4618;48.818;9.088;2023-09-30T16:15:21;23.50;1.00
9167;DHT22;4618;48.818;9.088;2023-09-30T16:17:47;23.30;1.00
9167;DHT22;4618;48.818;9.088;2023-09-30T16:20:12;23.00;1.00
9167;DHT22;4618;48.818;9.088;2023-09-30T16:22:38;22.70;1.00
9167;DHT22;4618;48.818;9.088;2023-09-30T16:34:49;21.50;1.00
9167;DHT22;4618;48.818;9.088;2023-09-30T16:42:07;21.00;99.90
9167;DHT22;4618;48.818;9.088;2023-09-30T16:44:32;20.70;99.90
9167;DHT22;4618;48.818;9.088;2023-09-30T16:46:58;20.40;99.90
9167;DHT22;4618;48.818;9.088;2023-09-30T16:49:24;20.10;99.90
9167;DHT22;4618;48.818;9.088;2023-09-30T16:51:50;19.70;99.90
9167;DHT22;4618;48.818;9.088;2023-09-30T16:54:15;19.30;99.90
9167;DHT22;4618;48.818;9.088;2023-09-30T16:56:42;19.30;99.90
9167;DHT22;4618;48.818;9.088;2023-09-30T16:59:07;19.00;99.90
9167;DHT22;4618;48.818;9.088;2023-09-30T17:01:33;18.80;99.90
9167;DHT22;4618;48.818;9.088;2023-09-30T17:03:59;18.60;99.90
9167;DHT22;4618;48.818;9.088;2023-09-30T17:06:24;18.50;99.90
9167;DHT22;4618;48.818;9.088;2023-09-30T17:08:50;18.30;99.90
9167;DHT22;4618;48.818;9.088;2023-09-30T17:11:19;18.20;99.90
9167;DHT22;4618;48.818;9.088;2023-09-30T17:13:45;18.10;99.90
9167;DHT22;4618;48.818;9.088;2023-09-30T17:16:17;18.00;99.90
9167;DHT22;4618;48.818;9.088;2023-09-30T17:18:43;17.90;99.90
9167;DHT22;4618;48.818;9.088;2023-09-30T17:21:08;17.80;99.90
9167;DHT22;4618;48.818;9.088;2023-09-30T17:23:35;17.80;99.90
9167;DHT22;4618;48.818;9.088;2023-09-30T17:26:01;17.60;99.90
9167;DHT22;4618;48.818;9.088;2023-09-30T17:28:29;17.50;99.90
9167;DHT22;4618;48.818;9.088;2023-09-30T17:30:55;17.40;99.90
9167;DHT22;4618;48.818;9.088;2023-09-30T17:33:22;17.30;99.90
9167;DHT22;4618;48.818;9.088;2023-09-30T17:35:47;17.10;99.90
9167;DHT22;4618;48.818;9.088;2023-09-30T17:38:13;17.20;99.90
9167;DHT22;4618;48.818;9.088;2023-09-30T17:40:39;17.20;99.90
9167;DHT22;4618;48.818;9.088;2023-09-30T17:43:04;17.10;99.90
9167;DHT22;4618;48.818;9.088;2023-09-30T17:45:30;17.00;99.90
9167;DHT22;4618;48.818;9.088;2023-09-30T17:47:55;16.90;99.90
9167;DHT22;4618;48.818;9.088;2023-09-30T17:50:21;16.80;99.90
9167;DHT22;4618;48.818;9.088;2023-09-30T17:52:46;16.80;99.90
9167;DHT22;4618;48.818;9.088;2023-09-30T17:55:12;16.70;99.90
9167;DHT22;4618;48.818;9.088;2023-09-30T17:57:38;16.60;1.00
9167;DHT22;4618;48.818;9.088;2023-09-30T18:00:04;16.60;1.00
9167;DHT22;4618;48.818;9.088;2023-09-30T18:02:29;16.50;1.00
9167;DHT22;4618;48.818;9.088;2023-09-30T18:21:57;15.90;99.90
9167;DHT22;4618;48.818;9.088;2023-09-30T18:29:14;15.30;99.90
9167;DHT22;4618;48.818;9.088;2023-09-30T19:54:43;13.90;1.00
9167;DHT22;4618;48.818;9.088;2023-09-30T19:57:09;13.90;1.00
9167;DHT22;4618;48.818;9.088;2023-09-30T19:59:39;13.70;1.00
9167;DHT22;4618;48.818;9.088;2023-09-30T20:02:05;13.70;1.00
9167;DHT22;4618;48.818;9.088;2023-09-30T20:04:31;13.60;1.00
9167;DHT22;4618;48.818;9.088;2023-09-30T20:06:56;13.60;1.60
9167;DHT22;4618;48.818;9.088;2023-09-30T20:09:22;13.50;48.30
9167;DHT22;4618;48.818;9.088;2023-09-30T20:11:48;13.50;60.10
9167;DHT22;4618;48.818;9.088;2023-09-30T20:14:20;13.50;99.90
9167;DHT22;4618;48.818;9.088;2023-09-30T20:16:45;13.40;99.90
9167;DHT22;4618;48.818;9.088;2023-09-30T20:19:12;13.40;1.00
9167;DHT22;4618;48.818;9.088;2023-09-30T20:21:37;13.20;1.00
9167;DHT22;4618;48.818;9.088;2023-09-30T20:31:26;13.00;1.00
9167;DHT22;4618;48.818;9.088;2023-09-30T20:33:53;13.00;85.50
9167;DHT22;4618;48.818;9.088;2023-09-30T20:36:18;13.00;99.90
9167;DHT22;4618;48.818;9.088;2023-09-30T20:38:44;13.10;99.90
9167;DHT22;4618;48.818;9.088;2023-09-30T20:41:10;13.00;53.10
9167;DHT22;4618;48.818;9.088;2023-09-30T20:43:41;13.10;22.30
9167;DHT22;4618;48.818;9.088;2023-09-30T20:46:07;13.10;12.50
9167;DHT22;4618;48.818;9.088;2023-09-30T20:48:33;13.00;99.90
9167;DHT22;4618;48.818;9.088;2023-09-30T20:53:29;12.90;1.00
9167;DHT22;4618;48.818;9.088;2023-09-30T20:55:54;12.80;99.90
9167;DHT22;4618;48.818;9.088;2023-09-30T20:58:20;12.80;99.90
9167;DHT22;4618;48.818;9.088;2023-09-30T21:00:46;12.70;99.90
9167;DHT22;4618;48.818;9.088;2023-09-30T21:03:12;12.70;1.00
9167;DHT22;4618;48.818;9.088;2023-09-30T21:05:38;12.50;1.00
9167;DHT22;4618;48.818;9.088;2023-09-30T21:08:06;12.30;99.90
9167;DHT22;4618;48.818;9.088;2023-09-30T21:10:32;12.40;99.90
9167;DHT22;4618;48.818;9.088;2023-09-30T21:12:58;12.40;99.90
9167;DHT22;4618;48.818;9.088;2023-09-30T21:15:23;12.40;99.90
9167;DHT22;4618;48.818;9.088;2023-09-30T21:17:49;12.50;99.90
9167;DHT22;4618;48.818;9.088;2023-09-30T21:20:15;12.40;36.30
9167;DHT22;4618;48.818;9.088;2023-09-30T21:22:40;12.40;30.70
9167;DHT22;4618;48.818;9.088;2023-09-30T21:25:07;12.30;99.90
9167;DHT22;4618;48.818;9.088;2023-09-30T21:27:33;12.30;99.90
9167;DHT22;4618;48.818;9.088;2023-09-30T21:30:00;12.20;99.90
9167;DHT22;4618;48.818;9.088;2023-09-30T21:32:25;12.30;1.00
9167;DHT22;4618;48.818;9.088;2023-09-30T21:34:51;12.40;99.90
9167;DHT22;4618;48.818;9.088;2023-09-30T21:37:17;12.30;99.90
9167;DHT22;4618;48.818;9.088;2023-09-30T21:39:43;12.20;99.90
9167;DHT22;4618;48.818;9.088;2023-09-30T21:42:08;12.10;1.00
